Time;durP1;ratioP1;P1;durP2;ratioP2;P2;SDS_P1;SDS_P2;PMS_P1;PMS_P2;Temp;Humidity;BMP_temperature;BMP_pressure;BME280_temperature;BME280_humidity;BME280_pressure;Samples;Min_cycle;Max_cycle;Signal;HPM_P1;HPM_P2
2022/10/27 00:00:49;;;;;;;5.20;1.20;;;18.20;56.80;;;;;;4985960;28;20582;-53
2022/10/27 00:03:17;;;;;;;2.60;0.98;;;18.20;56.90;;;;;;4987700;28;20054;-55
2022/10/27 00:05:46;;;;;;;2.80;1.30;;;18.20;56.90;;;;;;4985226;28;20058;-52
2022/10/27 00:08:14;;;;;;;4.28;1.30;;;18.10;56.80;;;;;;4988427;28;20057;-54
2022/10/27 00:10:43;;;;;;;2.75;1.17;;;18.10;56.90;;;;;;4985751;28;20058;-52
2022/10/27 00:13:11;;;;;;;5.35;1.40;;;18.10;56.90;;;;;;4988203;28;20438;-51
2022/10/27 00:15:40;;;;;;;2.53;1.13;;;18.10;56.90;;;;;;4985189;28;20410;-52
2022/10/27 00:18:09;;;;;;;8.63;1.60;;;18.00;56.90;;;;;;4987523;28;20080;-55
2022/10/27 00:20:36;;;;;;;3.90;1.30;;;18.00;57.00;;;;;;4986482;28;20051;-53
2022/10/27 00:23:03;;;;;;;8.05;1.35;;;18.00;57.00;;;;;;4987736;28;20341;-54
2022/10/27 00:25:31;;;;;;;5.40;1.38;;;18.00;57.30;;;;;;4985139;28;20101;-54
2022/10/27 00:27:58;;;;;;;3.45;1.25;;;18.00;57.10;;;;;;4987721;28;20054;-53
2022/10/27 00:30:25;;;;;;;3.25;1.58;;;18.00;57.10;;;;;;4985214;28;20440;-54
2022/10/27 00:32:55;;;;;;;4.38;1.77;;;17.90;57.10;;;;;;4987770;28;20414;-54
2022/10/27 00:35:22;;;;;;;4.38;1.25;;;17.90;57.20;;;;;;4985899;28;20103;-54
2022/10/27 00:37:49;;;;;;;3.33;1.48;;;17.90;57.20;;;;;;4987110;28;20498;-55
2022/10/27 00:40:16;;;;;;;3.95;1.58;;;17.90;57.20;;;;;;4984806;28;20046;-55
2022/10/27 00:42:44;;;;;;;4.40;1.70;;;17.90;57.20;;;;;;4987220;28;20422;-52
2022/10/27 00:45:11;;;;;;;3.10;1.55;;;17.90;57.30;;;;;;4985395;28;20069;-47
2022/10/27 00:47:39;;;;;;;7.32;1.60;;;17.80;57.30;;;;;;4985446;28;20398;-53
2022/10/27 00:50:11;;;;;;;3.28;1.42;;;17.80;57.30;;;;;;4985322;28;20054;-55
2022/10/27 00:52:43;;;;;;;3.15;1.63;;;17.80;57.30;;;;;;4986984;28;20414;-54
2022/10/27 00:55:15;;;;;;;3.08;1.15;;;17.80;57.40;;;;;;4985497;28;20050;-54
2022/10/27 00:57:45;;;;;;;3.15;1.30;;;17.80;57.40;;;;;;4987414;28;20065;-55
2022/10/27 01:00:14;;;;;;;4.28;1.42;;;17.70;57.30;;;;;;4984207;28;20050;-54
2022/10/27 01:02:41;;;;;;;5.88;1.40;;;17.70;57.40;;;;;;4985798;28;20069;-53
2022/10/27 01:05:14;;;;;;;3.95;1.60;;;17.70;57.40;;;;;;4985514;28;20062;-56
2022/10/27 01:07:43;;;;;;;4.63;1.67;;;17.70;57.50;;;;;;4984689;28;20050;-48
2022/10/27 01:10:11;;;;;;;3.20;1.45;;;17.70;57.50;;;;;;4983977;28;20057;-55
2022/10/27 01:12:39;;;;;;;3.28;1.50;;;17.70;57.50;;;;;;4984065;28;20058;-55
2022/10/27 01:15:07;;;;;;;8.48;1.52;;;17.60;57.40;;;;;;4984667;28;20632;-51
2022/10/27 01:17:44;;;;;;;4.55;1.75;;;17.60;57.50;;;;;;4985269;28;20490;-55
2022/10/27 01:20:46;;;;;;;7.38;1.80;;;17.60;57.50;;;;;;4984835;28;20054;-55
2022/10/27 01:23:31;;;;;;;3.50;1.83;;;17.60;57.50;;;;;;4982654;28;20498;-55
2022/10/27 01:26:32;;;;;;;6.03;1.80;;;17.50;57.40;;;;;;4985275;28;20062;-51
2022/10/27 01:29:37;;;;;;;6.20;1.70;;;17.50;57.50;;;;;;4979889;28;20050;-54
2022/10/27 01:32:16;;;;;;;2.97;1.73;;;17.50;57.50;;;;;;4980078;28;20058;-55
2022/10/27 01:34:47;;;;;;;2.38;1.30;;;17.50;57.50;;;;;;4981347;28;20057;-49
2022/10/27 01:37:20;;;;;;;5.75;1.80;;;17.40;57.50;;;;;;4981299;28;20058;-53
2022/10/27 01:39:52;;;;;;;3.92;2.03;;;17.40;57.60;;;;;;4980445;28;20482;-51
2022/10/27 01:42:25;;;;;;;3.55;1.60;;;17.40;57.60;;;;;;4984748;28;20516;-55
2022/10/27 01:44:56;;;;;;;3.58;1.65;;;17.40;57.60;;;;;;4986070;28;20138;-55
2022/10/27 01:47:26;;;;;;;6.10;1.60;;;17.30;57.60;;;;;;4985857;28;20073;-55
2022/10/27 01:49:54;;;;;;;4.72;1.70;;;17.30;57.70;;;;;;4979997;28;20054;-55
2022/10/27 01:52:43;;;;;;;5.90;1.75;;;17.30;57.70;;;;;;4983692;28;20624;-55
2022/10/27 01:55:15;;;;;;;10.05;1.80;;;17.20;57.90;;;;;;4979500;28;20061;-53
2022/10/27 01:58:08;;;;;;;3.28;1.58;;;17.20;57.80;;;;;;4985664;28;20087;-54
2022/10/27 02:00:46;;;;;;;5.38;2.05;;;17.20;57.90;;;;;;4985654;28;20403;-55
2022/10/27 02:03:19;;;;;;;3.97;1.60;;;17.20;57.90;;;;;;4985728;28;20050;-54
2022/10/27 02:05:53;;;;;;;3.25;1.92;;;17.20;57.90;;;;;;4985183;28;20050;-55
2022/10/27 02:08:27;;;;;;;7.88;2.22;;;17.10;57.90;;;;;;4985044;28;20422;-55
2022/10/27 02:10:59;;;;;;;5.68;2.00;;;17.10;58.00;;;;;;4986330;28;20054;-55
2022/10/27 02:13:28;;;;;;;4.40;1.90;;;17.10;58.10;;;;;;4985388;28;20054;-55
2022/10/27 02:16:00;;;;;;;3.25;1.70;;;17.10;58.10;;;;;;4984594;28;20058;-53
2022/10/27 02:18:32;;;;;;;4.30;1.83;;;17.10;58.20;;;;;;4984601;28;20061;-55
2022/10/27 02:21:03;;;;;;;9.23;1.52;;;17.00;58.20;;;;;;4985525;28;20057;-55
2022/10/27 02:23:31;;;;;;;4.20;1.50;;;17.00;58.20;;;;;;4984128;28;20847;-55
2022/10/27 02:26:03;;;;;;;5.07;1.80;;;17.00;58.20;;;;;;4985656;28;20075;-55
2022/10/27 02:28:36;;;;;;;3.30;1.48;;;17.00;58.30;;;;;;4985344;28;20050;-55
2022/10/27 02:31:05;;;;;;;3.10;1.40;;;16.90;58.30;;;;;;4985338;28;20414;-55
2022/10/27 02:33:33;;;;;;;5.28;2.13;;;17.00;58.40;;;;;;4985356;28;20525;-55
2022/10/27 02:36:01;;;;;;;4.75;1.80;;;16.90;58.40;;;;;;4985546;28;20058;-55
2022/10/27 02:38:28;;;;;;;5.45;1.60;;;16.90;58.50;;;;;;4984330;28;21394;-55
2022/10/27 02:40:55;;;;;;;5.00;2.15;;;16.90;58.50;;;;;;4985370;28;20059;-55
2022/10/27 02:43:23;;;;;;;6.47;2.03;;;16.90;58.60;;;;;;4985831;28;20054;-52
2022/10/27 02:45:50;;;;;;;4.43;1.77;;;16.90;58.60;;;;;;4974977;28;20049;-54
2022/10/27 02:48:17;;;;;;;3.10;1.77;;;16.90;58.60;;;;;;4985274;28;20058;-56
2022/10/27 02:50:46;;;;;;;5.75;2.08;;;16.90;58.60;;;;;;4984201;28;20405;-55
2022/10/27 02:53:13;;;;;;;4.07;1.67;;;16.80;58.70;;;;;;4983977;28;20065;-46
2022/10/27 02:55:40;;;;;;;4.97;2.03;;;16.80;58.70;;;;;;4985316;28;20497;-55
2022/10/27 02:58:07;;;;;;;3.15;1.55;;;16.80;58.80;;;;;;4985357;28;20050;-55
2022/10/27 03:00:34;;;;;;;5.55;1.80;;;16.80;58.80;;;;;;4985751;28;20050;-53
2022/10/27 03:03:02;;;;;;;4.15;1.95;;;16.80;59.40;;;;;;4985408;28;20054;-55
2022/10/27 03:05:29;;;;;;;3.65;1.83;;;16.80;59.00;;;;;;4986867;28;20054;-55
2022/10/27 03:07:58;;;;;;;3.25;1.70;;;16.80;58.90;;;;;;4983012;28;20055;-54
2022/10/27 03:10:25;;;;;;;4.80;1.70;;;16.80;59.10;;;;;;4980763;28;20061;-55
2022/10/27 03:12:52;;;;;;;6.60;1.80;;;16.70;59.00;;;;;;4985393;28;20058;-55
2022/10/27 03:15:20;;;;;;;7.07;1.75;;;16.70;59.10;;;;;;4981933;28;20057;-55
2022/10/27 03:17:48;;;;;;;4.70;1.63;;;16.70;59.10;;;;;;4983844;28;20065;-55
2022/10/27 03:20:16;;;;;;;5.45;1.48;;;16.70;59.10;;;;;;4987076;28;20467;-55
2022/10/27 03:22:44;;;;;;;2.42;1.58;;;16.70;59.10;;;;;;4985928;28;20054;-54
2022/10/27 03:25:14;;;;;;;6.38;2.28;;;16.70;59.10;;;;;;4986075;28;20077;-54
2022/10/27 03:27:42;;;;;;;5.38;1.95;;;16.70;59.20;;;;;;4988068;28;20054;-56
2022/10/27 03:30:11;;;;;;;7.10;2.10;;;16.70;59.30;;;;;;4988607;28;20061;-56
2022/10/27 03:32:39;;;;;;;5.18;1.80;;;16.60;59.30;;;;;;4989469;28;20062;-55
2022/10/27 03:35:07;;;;;;;4.60;2.00;;;16.60;59.30;;;;;;4979826;28;20054;-51
2022/10/27 03:37:34;;;;;;;5.70;1.98;;;16.70;59.40;;;;;;4978025;28;20057;-56
2022/10/27 03:40:01;;;;;;;8.63;1.90;;;16.70;59.50;;;;;;4974630;28;20061;-55
2022/10/27 03:42:30;;;;;;;6.40;1.88;;;16.60;59.50;;;;;;4976716;28;20054;-56
2022/10/27 03:44:57;;;;;;;3.22;2.08;;;16.60;59.50;;;;;;4976957;28;20054;-54
2022/10/27 03:47:25;;;;;;;7.60;2.50;;;16.60;59.40;;;;;;4975555;28;20061;-53
2022/10/27 03:49:52;;;;;;;3.95;1.40;;;16.60;59.50;;;;;;4974659;28;20046;-55
2022/10/27 03:52:20;;;;;;;3.47;1.70;;;16.60;59.40;;;;;;4975213;28;20058;-52
2022/10/27 03:54:47;;;;;;;4.57;1.88;;;16.60;59.40;;;;;;4975452;28;20050;-55
2022/10/27 03:57:15;;;;;;;6.75;1.63;;;16.60;59.40;;;;;;4979295;28;20058;-55
2022/10/27 03:59:43;;;;;;;2.35;1.77;;;16.60;59.40;;;;;;4976699;28;20057;-52
2022/10/27 04:02:10;;;;;;;7.43;2.20;;;16.60;59.40;;;;;;4975308;28;20056;-53
2022/10/27 04:04:38;;;;;;;2.50;1.63;;;16.60;59.40;;;;;;4975863;28;20050;-51
2022/10/27 04:07:05;;;;;;;5.82;2.13;;;16.60;59.40;;;;;;4980743;23;20109;-53
2022/10/27 04:09:32;;;;;;;3.15;1.60;;;16.60;59.30;;;;;;4973337;28;20059;-55
2022/10/27 04:11:59;;;;;;;4.65;1.92;;;16.60;59.40;;;;;;4958098;28;20051;-56
2022/10/27 04:14:26;;;;;;;8.07;1.80;;;16.50;59.30;;;;;;4970643;28;20062;-55
2022/10/27 04:16:56;;;;;;;6.25;2.08;;;16.50;59.30;;;;;;4978425;28;20550;-56
2022/10/27 04:19:23;;;;;;;4.07;1.60;;;16.50;59.30;;;;;;4966306;28;20967;-54
2022/10/27 04:21:50;;;;;;;3.70;1.80;;;16.50;59.30;;;;;;4970541;28;20054;-51
2022/10/27 04:24:18;;;;;;;5.03;1.63;;;16.50;59.30;;;;;;4973486;28;20054;-54
2022/10/27 04:26:45;;;;;;;4.97;2.10;;;16.50;59.80;;;;;;4980446;28;20051;-55
2022/10/27 04:29:12;;;;;;;5.70;2.35;;;16.50;59.40;;;;;;4966608;28;20434;-54
2022/10/27 04:31:39;;;;;;;3.75;1.88;;;16.50;59.50;;;;;;4956743;28;20058;-55
2022/10/27 04:34:08;;;;;;;6.07;1.80;;;16.50;59.50;;;;;;4968499;28;20061;-54
2022/10/27 04:36:35;;;;;;;4.43;1.90;;;16.50;59.60;;;;;;4978455;28;20066;-56
2022/10/27 04:39:02;;;;;;;6.03;2.60;;;16.40;59.50;;;;;;4974535;28;20058;-56
2022/10/27 04:41:31;;;;;;;5.93;2.45;;;16.40;59.60;;;;;;4978186;28;20058;-55
2022/10/27 04:43:58;;;;;;;4.53;2.35;;;16.40;59.60;;;;;;4979623;28;20057;-53
2022/10/27 04:46:25;;;;;;;4.55;2.38;;;16.40;59.60;;;;;;4981612;28;20054;-54
2022/10/27 04:48:53;;;;;;;5.50;2.50;;;16.40;59.70;;;;;;4986661;28;20380;-55
2022/10/27 04:51:21;;;;;;;6.75;2.53;;;16.40;59.70;;;;;;4986788;28;20061;-56
2022/10/27 04:53:49;;;;;;;5.50;2.65;;;16.40;59.70;;;;;;4972281;28;20051;-57
2022/10/27 04:56:16;;;;;;;4.25;2.33;;;16.40;59.70;;;;;;4986865;28;20061;-53
2022/10/27 04:58:43;;;;;;;19.92;8.32;;;16.30;59.60;;;;;;4982890;28;20054;-56
2022/10/27 05:01:13;;;;;;;11.30;6.22;;;16.30;59.60;;;;;;4972968;28;20061;-55
2022/10/27 05:03:40;;;;;;;6.25;3.55;;;16.30;59.60;;;;;;4965346;28;22089;-56
2022/10/27 05:06:08;;;;;;;11.55;2.97;;;16.30;59.60;;;;;;4964116;28;20054;-55
2022/10/27 05:08:36;;;;;;;3.38;2.03;;;16.30;59.70;;;;;;4967533;28;20058;-56
2022/10/27 05:11:04;;;;;;;3.65;2.13;;;16.30;59.60;;;;;;4970628;28;20058;-56
2022/10/27 05:13:31;;;;;;;5.32;2.42;;;16.30;59.60;;;;;;4973436;28;20058;-56
2022/10/27 05:16:02;;;;;;;5.43;2.03;;;16.30;59.70;;;;;;4972264;28;20415;-54
2022/10/27 05:18:30;;;;;;;8.10;2.15;;;16.30;59.80;;;;;;4971322;28;20995;-56
2022/10/27 05:20:57;;;;;;;5.43;2.10;;;16.30;59.80;;;;;;4971005;28;20050;-53
2022/10/27 05:23:25;;;;;;;5.40;1.90;;;16.30;59.80;;;;;;4975438;28;20059;-54
2022/10/27 05:25:55;;;;;;;8.63;2.40;;;16.30;59.80;;;;;;4976438;28;20065;-57
2022/10/27 05:28:23;;;;;;;4.80;2.10;;;16.30;59.90;;;;;;4972233;28;21762;-56
2022/10/27 05:30:50;;;;;;;6.03;2.90;;;16.30;60.50;;;;;;4974863;28;20418;-51
2022/10/27 05:33:17;;;;;;;21.08;10.20;;;16.20;59.80;;;;;;4972096;28;20457;-56
2022/10/27 05:35:44;;;;;;;18.52;8.60;;;16.30;59.80;;;;;;4974967;28;20528;-57
2022/10/27 05:38:12;;;;;;;9.25;4.15;;;16.20;59.80;;;;;;4971067;28;20058;-55
2022/10/27 05:40:39;;;;;;;7.97;2.90;;;16.20;59.70;;;;;;4973890;28;20053;-52
2022/10/27 05:43:09;;;;;;;4.72;2.45;;;16.20;59.70;;;;;;4972643;28;20058;-56
2022/10/27 05:45:36;;;;;;;7.10;2.38;;;16.20;59.60;;;;;;4974866;28;20386;-52
2022/10/27 05:48:05;;;;;;;7.30;2.47;;;16.20;59.60;;;;;;4970546;28;20054;-56
2022/10/27 05:50:33;;;;;;;4.28;2.38;;;16.20;59.60;;;;;;4972098;28;20058;-55
2022/10/27 05:53:01;;;;;;;6.07;2.63;;;16.20;59.60;;;;;;4972870;28;20061;-56
2022/10/27 05:55:28;;;;;;;5.35;2.33;;;16.20;59.60;;;;;;4978888;28;20058;-57
2022/10/27 05:57:57;;;;;;;6.40;3.08;;;16.10;59.60;;;;;;4982773;28;20057;-57
2022/10/27 06:00:29;;;;;;;5.57;2.67;;;16.10;59.70;;;;;;4986886;28;20057;-57
2022/10/27 06:02:57;;;;;;;4.93;2.40;;;16.10;59.70;;;;;;4986237;28;20057;-54
2022/10/27 06:05:24;;;;;;;9.43;3.40;;;16.10;59.70;;;;;;4981799;28;20054;-56
2022/10/27 06:07:52;;;;;;;5.18;2.08;;;16.10;59.70;;;;;;4981991;28;20446;-57
2022/10/27 06:10:19;;;;;;;6.40;2.95;;;16.10;59.70;;;;;;4982035;28;20529;-57
2022/10/27 06:12:46;;;;;;;4.10;2.05;;;16.10;59.80;;;;;;4984698;28;20054;-57
2022/10/27 06:15:14;;;;;;;4.53;2.17;;;16.10;59.80;;;;;;4984429;28;20050;-57
2022/10/27 06:17:42;;;;;;;6.78;2.60;;;16.10;59.80;;;;;;4983858;28;20426;-56
2022/10/27 06:20:10;;;;;;;5.28;2.92;;;16.10;59.90;;;;;;4983470;28;20057;-55
2022/10/27 06:22:37;;;;;;;7.65;2.33;;;16.00;59.80;;;;;;4985242;28;20054;-56
2022/10/27 06:25:05;;;;;;;10.57;2.42;;;16.00;59.90;;;;;;4984804;28;20053;-57
2022/10/27 06:27:32;;;;;;;5.60;1.95;;;16.00;60.00;;;;;;4984683;28;20054;-56
2022/10/27 06:29:59;;;;;;;5.90;2.10;;;16.00;60.00;;;;;;4983349;28;20058;-56
2022/10/27 06:32:27;;;;;;;4.40;2.30;;;16.00;60.10;;;;;;4986194;28;20065;-56
2022/10/27 06:34:55;;;;;;;2.47;1.80;;;16.00;60.10;;;;;;4984485;28;20054;-56
2022/10/27 06:37:22;;;;;;;3.78;2.10;;;16.00;60.20;;;;;;4983874;28;20062;-55
2022/10/27 06:39:50;;;;;;;5.03;1.88;;;16.00;60.20;;;;;;4972275;28;20047;-56
2022/10/27 06:42:17;;;;;;;5.63;2.30;;;16.00;60.20;;;;;;4973010;28;20046;-57
2022/10/27 06:44:44;;;;;;;5.85;2.33;;;16.00;60.20;;;;;;4975564;28;20065;-56
2022/10/27 06:47:11;;;;;;;7.00;2.45;;;16.00;60.20;;;;;;4969164;28;20065;-55
2022/10/27 06:49:38;;;;;;;4.57;2.13;;;16.00;60.30;;;;;;4970728;28;20061;-56
2022/10/27 06:52:07;;;;;;;3.20;1.85;;;16.00;60.30;;;;;;4967344;28;20419;-56
2022/10/27 06:54:34;;;;;;;2.38;1.77;;;16.00;60.40;;;;;;4973593;28;20073;-57
2022/10/27 06:57:01;;;;;;;5.47;2.40;;;16.10;60.40;;;;;;4973091;28;20050;-55
2022/10/27 06:59:29;;;;;;;3.92;1.90;;;16.10;60.50;;;;;;4970235;28;20127;-55
2022/10/27 07:01:56;;;;;;;5.38;1.90;;;16.10;60.60;;;;;;4976626;28;20061;-57
2022/10/27 07:04:23;;;;;;;6.07;2.10;;;16.10;60.70;;;;;;4983244;28;20058;-57
2022/10/27 07:06:50;;;;;;;6.65;1.80;;;16.10;60.60;;;;;;5002944;23;20538;-57
2022/10/27 07:09:19;;;;;;;7.55;2.92;;;16.10;60.70;;;;;;5001867;28;20418;-57
2022/10/27 07:11:46;;;;;;;5.78;1.83;;;16.10;60.80;;;;;;5003494;28;20057;-56
2022/10/27 07:14:13;;;;;;;4.53;1.80;;;16.10;60.80;;;;;;5008689;28;20053;-57
2022/10/27 07:16:40;;;;;;;3.80;1.55;;;16.10;60.80;;;;;;5013597;28;20432;-58
2022/10/27 07:19:08;;;;;;;11.57;5.25;;;16.20;60.90;;;;;;5002572;28;20050;-57
2022/10/27 07:21:35;;;;;;;15.68;8.00;;;16.20;60.90;;;;;;4999008;28;20487;-57
2022/10/27 07:24:02;;;;;;;9.98;3.83;;;16.20;60.80;;;;;;5002665;28;20486;-57
2022/10/27 07:26:31;;;;;;;4.97;2.30;;;16.20;60.80;;;;;;5007072;28;20053;-57
2022/10/27 07:28:58;;;;;;;4.82;1.80;;;16.30;61.00;;;;;;5007387;28;20065;-57
2022/10/27 07:31:25;;;;;;;2.92;1.42;;;16.30;61.00;;;;;;4990341;28;20050;-56
2022/10/27 07:33:52;;;;;;;3.42;1.52;;;16.30;61.00;;;;;;5003984;28;20053;-57
2022/10/27 07:36:19;;;;;;;3.65;1.88;;;16.30;61.10;;;;;;5003799;28;20077;-57
2022/10/27 07:38:46;;;;;;;4.75;1.80;;;16.40;61.20;;;;;;5011090;28;20053;-59
2022/10/27 07:41:14;;;;;;;7.72;2.30;;;16.40;61.20;;;;;;5006011;28;20053;-57
2022/10/27 07:43:44;;;;;;;2.33;1.55;;;16.40;61.20;;;;;;5003388;28;20061;-58
2022/10/27 07:46:11;;;;;;;3.83;1.73;;;16.40;61.30;;;;;;5004656;28;20057;-58
2022/10/27 07:48:38;;;;;;;7.72;1.73;;;16.40;61.20;;;;;;5006670;28;20049;-53
2022/10/27 07:51:06;;;;;;;9.45;1.90;;;16.50;61.30;;;;;;4999993;28;20054;-56
2022/10/27 07:53:33;;;;;;;3.22;1.65;;;16.50;61.40;;;;;;5003373;28;20057;-57
2022/10/27 07:56:01;;;;;;;4.07;1.55;;;16.50;61.40;;;;;;5009150;28;20065;-57
2022/10/27 07:58:29;;;;;;;4.05;1.70;;;16.60;61.60;;;;;;5005096;28;20061;-57
2022/10/27 08:00:58;;;;;;;4.60;1.67;;;16.60;61.60;;;;;;5000687;28;20050;-57
2022/10/27 08:03:28;;;;;;;9.73;2.40;;;16.60;61.80;;;;;;5001897;28;20482;-56
2022/10/27 08:05:57;;;;;;;5.78;2.03;;;16.60;61.80;;;;;;5003887;28;20426;-58
2022/10/27 08:08:24;;;;;;;4.75;1.75;;;16.70;61.90;;;;;;5000443;28;20065;-56
2022/10/27 08:10:51;;;;;;;4.80;1.73;;;16.70;61.90;;;;;;5004418;28;20062;-58
2022/10/27 08:13:18;;;;;;;5.50;1.63;;;16.80;61.90;;;;;;5013301;28;20057;-58
2022/10/27 08:15:46;;;;;;;3.10;1.48;;;16.80;61.90;;;;;;5010385;28;20054;-57
2022/10/27 08:18:15;;;;;;;4.35;1.58;;;16.80;61.90;;;;;;5006774;28;20062;-57
2022/10/27 08:20:43;;;;;;;4.45;1.88;;;16.90;62.00;;;;;;5009820;28;20421;-57
2022/10/27 08:23:12;;;;;;;4.28;1.60;;;16.90;62.00;;;;;;5018639;28;20397;-58
2022/10/27 08:25:39;;;;;;;4.55;1.50;;;17.00;62.10;;;;;;5006486;28;20062;-57
2022/10/27 08:28:07;;;;;;;2.80;1.48;;;17.00;62.10;;;;;;5012979;28;20046;-55
2022/10/27 08:30:34;;;;;;;5.93;1.50;;;17.10;62.20;;;;;;5006594;28;20058;-57
2022/10/27 08:33:03;;;;;;;5.90;1.60;;;17.10;62.20;;;;;;5007716;28;20058;-56
2022/10/27 08:35:33;;;;;;;5.88;2.00;;;17.10;62.30;;;;;;5009633;28;20068;-56
2022/10/27 08:38:03;;;;;;;8.63;2.40;;;17.20;62.50;;;;;;5006809;28;20054;-57
2022/10/27 08:40:37;;;;;;;4.18;2.10;;;17.20;62.50;;;;;;5005123;28;20045;-57
2022/10/27 08:43:10;;;;;;;;;;;17.30;62.60;;;;;;5006193;28;20061;-57
2022/10/27 08:45:46;;;;;;;4.82;2.13;;;17.40;62.60;;;;;;5005688;28;20275;-56
2022/10/27 08:48:16;;;;;;;3.28;1.80;;;17.40;62.40;;;;;;5005233;28;20410;-57
2022/10/27 08:50:46;;;;;;;6.20;1.75;;;17.40;62.50;;;;;;5013865;28;20070;-54
2022/10/27 08:53:19;;;;;;;2.70;1.40;;;17.50;62.60;;;;;;5005056;28;20057;-57
2022/10/27 08:55:51;;;;;;;5.85;1.55;;;17.50;62.60;;;;;;5001133;28;20050;-58
2022/10/27 08:58:31;;;;;;;4.70;1.95;;;17.60;62.80;;;;;;5009335;28;20124;-57
2022/10/27 09:01:02;;;;;;;4.40;1.70;;;17.60;62.90;;;;;;5020827;28;20061;-58
2022/10/27 09:03:42;;;;;;;11.38;2.10;;;17.70;62.90;;;;;;5003400;28;20061;-58
2022/10/27 09:06:18;;;;;;;3.65;1.80;;;17.70;63.00;;;;;;5007307;28;20370;-58
2022/10/27 09:08:55;;;;;;;8.27;1.60;;;17.80;63.00;;;;;;5009871;28;20592;-58
2022/10/27 09:11:37;;;;;;;7.32;1.90;;;17.90;63.70;;;;;;5003567;28;20057;-58
2022/10/27 09:14:26;;;;;;;4.70;1.80;;;17.90;63.00;;;;;;5005698;28;20501;-59
2022/10/27 09:16:59;;;;;;;3.85;1.92;;;18.00;63.10;;;;;;5004958;28;20061;-55
2022/10/27 09:19:29;;;;;;;5.90;2.72;;;18.00;63.00;;;;;;5005786;28;20417;-59
2022/10/27 09:22:01;;;;;;;6.32;1.75;;;18.10;63.10;;;;;;5011574;28;20413;-55
2022/10/27 09:24:31;;;;;;;4.18;1.48;;;18.10;63.00;;;;;;5006060;28;20046;-59
2022/10/27 09:26:59;;;;;;;10.77;1.90;;;18.20;63.10;;;;;;5000481;28;20062;-58
2022/10/27 09:29:29;;;;;;;7.38;1.77;;;18.30;63.20;;;;;;5004118;28;20525;-59
2022/10/27 09:32:00;;;;;;;4.50;1.55;;;18.30;63.10;;;;;;5004815;28;20081;-59
2022/10/27 09:34:31;;;;;;;4.85;1.35;;;18.30;63.10;;;;;;5010424;28;20451;-53
2022/10/27 09:36:59;;;;;;;6.13;1.65;;;18.40;63.00;;;;;;5010436;28;20561;-54
2022/10/27 09:39:27;;;;;;;5.72;1.70;;;18.50;62.90;;;;;;5005202;28;20053;-55
2022/10/27 09:41:54;;;;;;;7.20;1.83;;;18.50;62.80;;;;;;5013580;28;20132;-54
2022/10/27 09:44:24;;;;;;;6.15;1.55;;;18.60;62.70;;;;;;5005976;28;20054;-52
2022/10/27 09:46:53;;;;;;;3.72;1.65;;;18.60;62.50;;;;;;5007036;28;20478;-55
2022/10/27 09:49:26;;;;;;;7.43;1.80;;;18.70;62.40;;;;;;5012016;28;20054;-56
2022/10/27 09:52:00;;;;;;;5.68;1.73;;;18.80;62.40;;;;;;5014668;28;20060;-55
2022/10/27 09:54:32;;;;;;;5.93;1.92;;;18.80;62.30;;;;;;5009359;28;20060;-55
2022/10/27 09:57:08;;;;;;;8.15;1.58;;;18.90;62.30;;;;;;5008903;28;20506;-55
2022/10/27 09:59:37;;;;;;;4.80;1.88;;;18.90;62.20;;;;;;5008439;28;20054;-53
2022/10/27 10:02:06;;;;;;;7.50;1.85;;;18.90;62.10;;;;;;5008738;28;20516;-55
2022/10/27 10:04:36;;;;;;;6.68;1.95;;;19.00;61.90;;;;;;5010655;28;20046;-55
2022/10/27 10:07:05;;;;;;;4.40;1.80;;;19.00;61.70;;;;;;5002568;28;20050;-55
2022/10/27 10:09:35;;;;;;;6.82;1.98;;;19.10;61.60;;;;;;5004028;28;20060;-54
2022/10/27 10:12:21;;;;;;;5.80;2.10;;;19.10;61.30;;;;;;5003292;28;20061;-52
2022/10/27 10:14:49;;;;;;;6.18;2.38;;;19.20;61.20;;;;;;5001331;28;20060;-50
2022/10/27 10:17:23;;;;;;;6.05;1.95;;;19.20;61.00;;;;;;5008822;28;20054;-55
2022/10/27 10:19:53;;;;;;;9.93;2.28;;;19.20;60.80;;;;;;5007416;28;20517;-55
2022/10/27 10:22:26;;;;;;;4.97;2.30;;;19.30;61.00;;;;;;5003691;28;20072;-55
2022/10/27 10:24:58;;;;;;;8.93;3.03;;;19.30;61.40;;;;;;5001378;28;20478;-55
2022/10/27 10:27:28;;;;;;;8.77;2.50;;;19.40;60.60;;;;;;5007060;28;20062;-55
2022/10/27 10:29:58;;;;;;;8.82;2.67;;;19.40;60.30;;;;;;4999626;28;20061;-50
2022/10/27 10:32:27;;;;;;;9.27;2.55;;;19.40;60.20;;;;;;4999921;28;20057;-56
2022/10/27 10:34:55;;;;;;;4.13;2.25;;;19.50;60.20;;;;;;4992092;28;20051;-56
2022/10/27 10:37:36;;;;;;;6.93;2.50;;;19.50;60.10;;;;;;4994606;28;20064;-52
2022/10/27 10:40:29;;;;;;;6.53;2.30;;;19.50;60.00;;;;;;4995185;28;20061;-52
2022/10/27 10:43:13;;;;;;;6.65;2.72;;;19.60;60.00;;;;;;5001752;28;20070;-55
2022/10/27 10:45:41;;;;;;;5.00;2.28;;;19.60;59.80;;;;;;4997701;28;20050;-54
2022/10/27 10:48:30;;;;;;;6.53;2.70;;;19.70;59.70;;;;;;4994469;28;20046;-55
2022/10/27 10:50:58;;;;;;;8.55;2.50;;;19.70;59.60;;;;;;4990513;28;20065;-55
2022/10/27 10:53:29;;;;;;;5.63;2.58;;;19.80;59.70;;;;;;5006456;28;20528;-54
2022/10/27 10:56:01;;;;;;;6.18;2.33;;;19.80;59.80;;;;;;4999557;28;20050;-54
2022/10/27 10:58:32;;;;;;;7.78;2.63;;;19.80;59.70;;;;;;4993672;28;20061;-53
2022/10/27 11:01:01;;;;;;;8.20;2.75;;;19.90;59.70;;;;;;5002850;28;20065;-53
2022/10/27 11:03:32;;;;;;;7.00;2.35;;;19.90;59.50;;;;;;4998730;28;20082;-54
2022/10/27 11:06:02;;;;;;;6.03;2.47;;;20.00;59.30;;;;;;4995990;23;20401;-52
2022/10/27 11:08:36;;;;;;;11.07;2.47;;;20.00;59.10;;;;;;4988337;28;20058;-55
2022/10/27 11:11:06;;;;;;;10.27;2.70;;;20.10;59.10;;;;;;4985968;28;20061;-53
2022/10/27 11:13:43;;;;;;;5.30;2.30;;;20.10;59.20;;;;;;4990897;28;20058;-54
2022/10/27 11:16:11;;;;;;;7.40;3.08;;;20.10;58.90;;;;;;4989537;28;20054;-55
2022/10/27 11:18:45;;;;;;;7.07;2.83;;;20.20;58.90;;;;;;4986733;28;20054;-55
2022/10/27 11:21:15;;;;;;;;;;;20.20;58.80;;;;;;4986022;28;20058;-55
2022/10/27 11:23:45;;;;;;;7.88;3.05;;;20.30;59.30;;;;;;4986220;28;19925;-52
2022/10/27 11:26:18;;;;;;;7.97;3.08;;;20.30;58.40;;;;;;4988302;28;20054;-55
2022/10/27 11:28:50;;;;;;;6.43;2.60;;;20.40;58.20;;;;;;4989880;28;20065;-55
2022/10/27 11:31:22;;;;;;;10.27;2.40;;;20.40;58.20;;;;;;4987536;28;20403;-55
2022/10/27 11:33:56;;;;;;;6.25;2.70;;;20.40;58.30;;;;;;4988591;28;20478;-49
2022/10/27 11:36:28;;;;;;;9.07;3.15;;;20.40;58.40;;;;;;4985283;28;20050;-55
2022/10/27 11:39:02;;;;;;;6.90;2.83;;;20.50;58.30;;;;;;4987617;28;20062;-54
2022/10/27 11:41:35;;;;;;;8.00;2.60;;;20.50;58.10;;;;;;4990917;28;20065;-54
2022/10/27 11:44:09;;;;;;;7.72;2.90;;;20.60;58.10;;;;;;4990085;28;20046;-54
2022/10/27 11:46:43;;;;;;;8.65;2.55;;;20.60;57.90;;;;;;4992011;28;20054;-54
2022/10/27 11:49:16;;;;;;;10.82;3.80;;;20.60;57.80;;;;;;4990838;28;21396;-56
2022/10/27 11:51:49;;;;;;;15.15;4.63;;;20.60;57.60;;;;;;4990065;28;20058;-56
2022/10/27 11:54:17;;;;;;;7.70;3.20;;;20.70;57.40;;;;;;4989455;28;20116;-55
2022/10/27 11:56:58;;;;;;;8.18;2.85;;;20.70;57.40;;;;;;4984996;28;20051;-55
2022/10/27 11:59:36;;;;;;;7.32;3.10;;;20.70;57.40;;;;;;4990378;28;20065;-55
2022/10/27 12:02:28;;;;;;;8.75;3.25;;;20.70;57.40;;;;;;4990669;28;20085;-53
2022/10/27 12:05:01;;;;;;;10.13;2.70;;;20.80;57.30;;;;;;4990085;28;20402;-55
2022/10/27 12:07:39;;;;;;;11.48;2.70;;;20.80;57.00;;;;;;4988908;28;20054;-55
2022/10/27 12:10:17;;;;;;;9.15;2.58;;;20.80;57.10;;;;;;4997028;28;20061;-54
2022/10/27 12:12:50;;;;;;;7.30;2.70;;;20.90;57.00;;;;;;5007237;28;20065;-55
2022/10/27 12:15:23;;;;;;;7.22;3.00;;;20.90;57.00;;;;;;5001116;28;20085;-56
2022/10/27 12:17:58;;;;;;;7.95;2.40;;;21.00;56.90;;;;;;5009519;28;20066;-50
2022/10/27 12:20:33;;;;;;;13.05;3.15;;;21.00;56.70;;;;;;5003367;28;20046;-54
2022/10/27 12:23:05;;;;;;;8.77;2.90;;;21.00;56.60;;;;;;5003726;28;20069;-56
2022/10/27 12:25:36;;;;;;;8.82;2.83;;;21.00;56.50;;;;;;5009107;28;20061;-56
2022/10/27 12:28:08;;;;;;;7.50;3.03;;;21.10;56.40;;;;;;5004313;28;20415;-56
2022/10/27 12:30:40;;;;;;;5.28;2.42;;;21.10;56.50;;;;;;5006372;28;20046;-55
2022/10/27 12:33:16;;;;;;;6.88;2.65;;;21.10;56.40;;;;;;4997245;28;20045;-52
2022/10/27 12:35:46;;;;;;;6.68;2.65;;;21.10;56.30;;;;;;5004461;28;20046;-52
2022/10/27 12:38:20;;;;;;;8.98;2.40;;;21.10;56.20;;;;;;5007116;28;20062;-56
2022/10/27 12:40:54;;;;;;;9.93;2.85;;;21.20;56.10;;;;;;5002501;28;20046;-56
2022/10/27 12:43:30;;;;;;;6.18;2.30;;;21.20;56.00;;;;;;5009888;28;20065;-54
2022/10/27 12:46:11;;;;;;;9.10;3.38;;;21.30;56.00;;;;;;5000888;28;20065;-51
2022/10/27 12:48:48;;;;;;;5.90;2.55;;;21.30;56.00;;;;;;5004418;28;20057;-54
2022/10/27 12:51:27;;;;;;;7.72;3.00;;;21.40;56.00;;;;;;5007762;28;20054;-55
2022/10/27 12:54:01;;;;;;;11.02;2.85;;;21.40;56.00;;;;;;5004483;28;20054;-56
2022/10/27 12:56:38;;;;;;;8.70;2.57;;;21.40;56.00;;;;;;5004452;28;20050;-54
2022/10/27 12:59:20;;;;;;;8.20;2.38;;;21.50;55.60;;;;;;5008415;28;20496;-56
2022/10/27 13:01:56;;;;;;;10.40;3.22;;;21.50;55.50;;;;;;5007797;28;20058;-56